Time;durP1;ratioP1;P1;durP2;ratioP2;P2;SDS_P1;SDS_P2;PMS_P1;PMS_P2;Temp;Humidity;BMP_temperature;BMP_pressure;BME280_temperature;BME280_humidity;BME280_pressure;Samples;Min_cycle;Max_cycle;Signal;HPM_P1;HPM_P2
2023/11/20 00:00:22;;;;;;;4.65;1.60;;;9.90;99.90;;;;;;4874039;29;20200;-82
2023/11/20 00:02:48;;;;;;;4.32;1.65;;;9.80;99.90;;;;;;4880630;29;20623;-82
2023/11/20 00:05:14;;;;;;;7.55;1.83;;;9.80;99.90;;;;;;4878970;29;20184;-82
2023/11/20 00:07:40;;;;;;;6.43;1.80;;;9.90;99.90;;;;;;4880338;29;20655;-82
2023/11/20 00:10:07;;;;;;;4.68;1.60;;;9.80;99.90;;;;;;4879070;29;20568;-82
2023/11/20 00:12:32;;;;;;;3.67;1.55;;;9.80;99.90;;;;;;4879077;29;20200;-81
2023/11/20 00:14:59;;;;;;;5.10;1.60;;;9.80;99.90;;;;;;4879148;29;20283;-82
2023/11/20 00:17:26;;;;;;;4.25;1.70;;;9.90;99.90;;;;;;4879778;29;20581;-82
2023/11/20 00:19:52;;;;;;;4.25;1.63;;;9.80;99.90;;;;;;4879002;29;20183;-82
2023/11/20 00:22:18;;;;;;;8.38;2.15;;;9.90;99.90;;;;;;4878809;29;20250;-83
2023/11/20 00:24:43;;;;;;;4.82;1.67;;;9.90;99.90;;;;;;4880131;29;20188;-83
2023/11/20 00:27:09;;;;;;;5.28;1.70;;;9.80;99.90;;;;;;4878957;29;20203;-82
2023/11/20 00:29:37;;;;;;;5.85;1.55;;;9.90;99.90;;;;;;4877907;29;20192;-83
2023/11/20 00:32:03;;;;;;;4.40;1.40;;;9.80;99.90;;;;;;4867748;29;20200;-81
2023/11/20 00:34:29;;;;;;;3.00;1.40;;;9.80;99.90;;;;;;4878515;29;20192;-83
2023/11/20 00:36:55;;;;;;;4.45;1.58;;;9.80;99.90;;;;;;4878613;29;20714;-83
2023/11/20 00:39:20;;;;;;;4.20;1.40;;;9.80;99.90;;;;;;4878042;29;20203;-82
2023/11/20 00:41:46;;;;;;;7.78;1.88;;;9.80;99.90;;;;;;4879874;29;20184;-83
2023/11/20 00:44:15;;;;;;;5.13;1.83;;;9.80;99.90;;;;;;4879755;29;20663;-82
2023/11/20 00:46:41;;;;;;;2.10;1.20;;;9.80;99.90;;;;;;4879543;29;20291;-82
2023/11/20 00:49:07;;;;;;;5.63;1.50;;;9.80;99.90;;;;;;4879734;29;20674;-82
2023/11/20 00:51:33;;;;;;;3.05;1.13;;;9.80;99.90;;;;;;4879422;29;20238;-82
2023/11/20 00:53:58;;;;;;;3.25;1.30;;;9.80;99.90;;;;;;4879904;29;20183;-82
2023/11/20 00:56:25;;;;;;;6.65;1.23;;;9.80;99.90;;;;;;4879557;29;20219;-83
2023/11/20 00:58:50;;;;;;;4.03;1.63;;;9.80;99.90;;;;;;4878320;29;20220;-82
2023/11/20 01:01:16;;;;;;;4.75;1.67;;;9.80;99.90;;;;;;4874058;29;20191;-81
2023/11/20 01:03:43;;;;;;;3.80;1.30;;;9.90;99.90;;;;;;4878133;29;20640;-82
2023/11/20 01:06:09;;;;;;;5.47;1.40;;;9.80;99.90;;;;;;4879692;29;20194;-82
2023/11/20 01:08:36;;;;;;;3.90;1.52;;;9.80;99.90;;;;;;4879309;29;20188;-82
2023/11/20 01:11:06;;;;;;;2.58;1.10;;;9.90;99.90;;;;;;4879251;29;20269;-82
2023/11/20 01:13:32;;;;;;;3.50;1.40;;;9.80;99.90;;;;;;4878203;29;20184;-81
2023/11/20 01:15:58;;;;;;;3.83;1.30;;;9.90;99.90;;;;;;4879265;29;20244;-82
2023/11/20 01:18:23;;;;;;;4.05;1.38;;;9.90;99.90;;;;;;4877881;29;20192;-83
2023/11/20 01:20:49;;;;;;;2.90;1.20;;;9.90;99.90;;;;;;4878234;29;20223;-84
2023/11/20 01:23:15;;;;;;;3.00;1.27;;;9.90;99.90;;;;;;4878519;29;20282;-85
2023/11/20 01:25:40;;;;;;;7.78;1.45;;;9.90;99.90;;;;;;4879908;29;20196;-83
2023/11/20 01:28:06;;;;;;;1.98;0.88;;;9.90;99.90;;;;;;4878378;29;20280;-87
2023/11/20 01:30:32;;;;;;;2.65;1.10;;;9.90;99.90;;;;;;4874410;29;20319;-91
2023/11/20 01:32:58;;;;;;;7.18;1.30;;;9.90;99.90;;;;;;4877475;29;20194;-89
2023/11/20 01:35:23;;;;;;;2.67;1.10;;;10.00;99.90;;;;;;4879319;29;20272;-85
2023/11/20 01:37:49;;;;;;;1.20;0.85;;;10.00;99.90;;;;;;4879930;29;20244;-86
2023/11/20 01:40:16;;;;;;;1.98;1.00;;;10.00;99.90;;;;;;4878523;29;20546;-84
2023/11/20 01:42:42;;;;;;;1.00;0.80;;;10.10;99.90;;;;;;4879737;29;20180;-87
2023/11/20 01:45:08;;;;;;;6.50;1.02;;;10.10;99.90;;;;;;4879875;29;20235;-88
2023/11/20 01:47:38;;;;;;;2.08;1.10;;;10.20;99.90;;;;;;4879597;29;20534;-86
2023/11/20 01:50:06;;;;;;;3.53;1.20;;;10.10;99.90;;;;;;4879725;29;20211;-88
2023/11/20 01:52:33;;;;;;;1.45;1.05;;;10.20;99.90;;;;;;4882200;29;20549;-85
2023/11/20 01:54:59;;;;;;;4.13;1.10;;;10.20;99.90;;;;;;4883416;29;20227;-86
2023/11/20 01:57:25;;;;;;;1.60;1.02;;;10.20;99.90;;;;;;4881851;29;20624;-90
2023/11/20 01:59:51;;;;;;;2.88;1.10;;;10.20;99.90;;;;;;4880398;29;20188;-83
2023/11/20 02:02:17;;;;;;;3.42;1.45;;;10.20;99.90;;;;;;4880061;29;20180;-85
2023/11/20 02:04:47;;;;;;;1.52;1.10;;;10.30;99.90;;;;;;4882953;29;20192;-84
2023/11/20 02:07:12;;;;;;;4.70;1.30;;;10.30;99.90;;;;;;4882742;29;20274;-81
2023/11/20 02:09:41;;;;;;;3.05;1.40;;;10.30;99.90;;;;;;4881424;29;20576;-82
2023/11/20 02:12:07;;;;;;;2.78;1.25;;;10.30;99.90;;;;;;4882616;29;20184;-81
2023/11/20 02:14:33;;;;;;;3.15;1.35;;;10.30;99.90;;;;;;4881188;29;20203;-81
2023/11/20 02:16:58;;;;;;;2.78;1.30;;;10.30;99.90;;;;;;4882347;29;20188;-82
2023/11/20 02:19:24;;;;;;;5.25;1.40;;;10.30;99.90;;;;;;4881168;29;20184;-82
2023/11/20 02:21:50;;;;;;;3.03;1.42;;;10.30;99.90;;;;;;4881548;29;20271;-88
2023/11/20 02:24:16;;;;;;;2.83;1.90;;;10.30;99.90;;;;;;4882049;29;20216;-88
2023/11/20 02:27:18;;;;;;;2.10;1.35;;;10.30;99.90;;;;;;4881579;29;20299;-87
2023/11/20 02:29:47;;;;;;;2.60;1.10;;;10.30;99.90;;;;;;4866190;29;20198;-83
2023/11/20 02:32:13;;;;;;;4.70;1.27;;;10.40;99.90;;;;;;4877882;29;20539;-89
2023/11/20 02:34:39;;;;;;;3.97;1.55;;;10.40;99.90;;;;;;4881273;29;20287;-86
2023/11/20 02:37:05;;;;;;;1.33;1.23;;;10.30;99.90;;;;;;4881198;29;20395;-83
2023/11/20 02:39:30;;;;;;;2.78;1.58;;;10.30;99.90;;;;;;4880779;29;20192;-83
2023/11/20 02:41:56;;;;;;;2.83;1.67;;;10.40;99.90;;;;;;4880623;29;20279;-87
2023/11/20 02:44:22;;;;;;;4.13;1.58;;;10.40;99.90;;;;;;4880764;29;20196;-81
2023/11/20 02:46:48;;;;;;;2.85;1.67;;;10.40;99.90;;;;;;4871899;29;20195;-84
2023/11/20 02:49:13;;;;;;;3.25;1.40;;;10.40;99.90;;;;;;4880634;29;20200;-81
2023/11/20 02:51:39;;;;;;;2.22;1.30;;;10.40;99.90;;;;;;4880656;29;20239;-83
2023/11/20 02:54:05;;;;;;;3.15;1.60;;;10.40;99.90;;;;;;4881908;29;20201;-82
2023/11/20 02:56:31;;;;;;;3.42;1.73;;;10.40;99.90;;;;;;4881344;29;20278;-84
2023/11/20 02:58:57;;;;;;;2.70;1.80;;;10.40;99.90;;;;;;4880630;29;20274;-84
2023/11/20 03:01:22;;;;;;;2.35;1.70;;;10.40;99.90;;;;;;4879500;29;20628;-83
2023/11/20 03:03:48;;;;;;;2.97;1.70;;;10.40;99.90;;;;;;4880624;29;20507;-82
2023/11/20 03:06:14;;;;;;;3.55;2.00;;;10.40;99.90;;;;;;4880345;29;20191;-81
2023/11/20 03:08:40;;;;;;;4.13;1.90;;;10.40;99.90;;;;;;4881689;29;20252;-82
2023/11/20 03:11:05;;;;;;;2.20;2.00;;;10.40;99.90;;;;;;4880181;29;20223;-82
2023/11/20 03:13:31;;;;;;;3.17;1.90;;;10.40;99.90;;;;;;4881480;29;20207;-82
2023/11/20 03:15:57;;;;;;;4.72;2.25;;;10.40;99.90;;;;;;4874287;29;20245;-81
2023/11/20 03:18:22;;;;;;;2.83;2.05;;;10.40;99.90;;;;;;4871099;29;20267;-80
2023/11/20 03:20:48;;;;;;;3.97;2.38;;;10.50;99.90;;;;;;4881089;29;20202;-79
2023/11/20 03:23:15;;;;;;;3.83;2.30;;;10.50;99.90;;;;;;4881009;29;20180;-80
2023/11/20 03:25:40;;;;;;;3.83;2.25;;;10.50;99.90;;;;;;4881165;29;20676;-81
2023/11/20 03:28:06;;;;;;;2.42;2.13;;;10.50;99.90;;;;;;4879741;29;20191;-81
2023/11/20 03:30:32;;;;;;;6.10;2.20;;;10.50;99.90;;;;;;4880973;29;20228;-81
2023/11/20 03:32:58;;;;;;;5.45;2.17;;;10.50;99.90;;;;;;4880616;29;20184;-82
2023/11/20 03:35:24;;;;;;;6.20;2.50;;;10.50;99.90;;;;;;4880595;29;20246;-81
2023/11/20 03:37:50;;;;;;;6.97;2.70;;;10.50;99.90;;;;;;5350107;23;20322;-85
2023/11/20 03:40:15;;;;;;;3.70;2.30;;;10.50;99.90;;;;;;4899350;29;20574;-88
2023/11/20 03:42:41;;;;;;;2.25;2.05;;;10.50;99.90;;;;;;4899149;29;20183;-87
2023/11/20 03:45:07;;;;;;;7.57;2.70;;;10.60;99.90;;;;;;4900175;29;20184;-92
2023/11/20 03:47:34;;;;;;;5.88;2.90;;;10.50;99.90;;;;;;4891444;29;20207;-91
2023/11/20 03:50:00;;;;;;;4.60;3.05;;;10.60;99.90;;;;;;4899008;29;20681;-90
2023/11/20 03:52:26;;;;;;;6.10;2.90;;;10.50;99.90;;;;;;4900210;29;20191;-88
2023/11/20 03:54:52;;;;;;;3.83;2.50;;;10.50;99.90;;;;;;4898936;29;20618;-92
2023/11/20 03:57:18;;;;;;;3.38;2.67;;;10.50;99.90;;;;;;4882453;29;20196;-87
2023/11/20 03:59:44;;;;;;;4.75;3.17;;;10.50;99.90;;;;;;4884565;29;20194;-90
2023/11/20 04:02:10;;;;;;;4.88;3.33;;;10.50;99.90;;;;;;4898208;29;20199;-89
2023/11/20 04:04:35;;;;;;;5.93;3.28;;;10.50;99.90;;;;;;4899945;29;20183;-90
2023/11/20 04:07:01;;;;;;;7.38;3.60;;;10.50;99.90;;;;;;4899719;29;20649;-85
2023/11/20 04:09:27;;;;;;;3.70;2.88;;;10.50;99.90;;;;;;4899530;29;20555;-89
2023/11/20 04:11:53;;;;;;;5.07;3.03;;;10.60;99.90;;;;;;4899600;29;20642;-87
2023/11/20 04:14:18;;;;;;;3.75;2.70;;;10.50;99.90;;;;;;4883349;29;20191;-88
2023/11/20 04:16:45;;;;;;;8.35;3.30;;;10.60;99.90;;;;;;4882806;29;20191;-90
2023/11/20 04:19:13;;;;;;;4.20;2.95;;;10.50;99.90;;;;;;4898419;29;20579;-89
2023/11/20 04:21:39;;;;;;;6.70;3.67;;;10.50;99.90;;;;;;4898411;29;20198;-92
2023/11/20 04:24:05;;;;;;;8.05;3.50;;;10.50;99.90;;;;;;4898812;29;20205;-88
2023/11/20 04:26:31;;;;;;;5.72;2.95;;;10.50;99.90;;;;;;4898283;29;20210;-88
2023/11/20 04:28:58;;;;;;;8.75;3.15;;;10.50;99.90;;;;;;4898094;29;20218;-89
2023/11/20 04:31:25;;;;;;;3.00;2.60;;;10.50;99.90;;;;;;4898164;29;20230;-89
2023/11/20 04:33:51;;;;;;;5.45;2.83;;;10.50;99.90;;;;;;4898205;29;20195;-87
2023/11/20 04:36:16;;;;;;;4.30;2.63;;;10.50;99.90;;;;;;4898129;29;20243;-89
2023/11/20 04:38:42;;;;;;;5.85;2.50;;;10.50;99.90;;;;;;4898235;29;20286;-88
2023/11/20 04:41:08;;;;;;;7.53;2.92;;;10.50;99.90;;;;;;4898334;29;20238;-89
2023/11/20 04:43:34;;;;;;;6.20;2.30;;;10.50;99.90;;;;;;4890632;29;20183;-92
2023/11/20 04:45:59;;;;;;;3.05;2.20;;;10.50;99.90;;;;;;4898140;29;20278;-91
2023/11/20 04:48:25;;;;;;;4.13;2.40;;;10.50;99.90;;;;;;4897748;29;20615;-91
2023/11/20 04:50:52;;;;;;;4.35;2.20;;;10.50;99.90;;;;;;4882792;29;20223;-89
2023/11/20 04:53:18;;;;;;;6.53;2.30;;;10.50;99.90;;;;;;4898055;29;20190;-96
2023/11/20 04:55:44;;;;;;;2.50;2.10;;;10.50;99.90;;;;;;4897982;29;20183;-93
2023/11/20 04:58:10;;;;;;;3.22;2.30;;;10.50;99.90;;;;;;4897672;29;20251;-86
2023/11/20 05:00:35;;;;;;;3.80;2.20;;;10.50;99.90;;;;;;4893002;29;20193;-90
2023/11/20 05:03:01;;;;;;;8.38;2.70;;;10.50;99.90;;;;;;4887552;29;20201;-92
2023/11/20 05:05:27;;;;;;;3.05;2.10;;;10.50;99.90;;;;;;4897933;29;20191;-87
2023/11/20 05:07:54;;;;;;;6.88;2.80;;;10.50;99.90;;;;;;4898967;29;20254;-91
2023/11/20 05:10:20;;;;;;;3.78;2.65;;;10.50;99.90;;;;;;4898712;29;20222;-86
2023/11/20 05:12:45;;;;;;;5.28;2.55;;;10.50;99.90;;;;;;4889327;29;20200;-88
2023/11/20 05:15:11;;;;;;;7.10;2.75;;;10.50;99.90;;;;;;4890974;29;20191;-90
2023/11/20 05:17:37;;;;;;;2.88;2.45;;;10.50;99.90;;;;;;4897740;29;20198;-92
2023/11/20 05:20:03;;;;;;;4.60;2.55;;;10.50;99.90;;;;;;4897436;29;20580;-88
2023/11/20 05:22:29;;;;;;;4.55;2.63;;;10.50;99.90;;;;;;4898770;29;20186;-89
2023/11/20 05:24:54;;;;;;;7.72;2.97;;;10.50;99.90;;;;;;4898894;29;20282;-90
2023/11/20 05:27:20;;;;;;;3.90;2.78;;;10.50;99.90;;;;;;4900960;29;20210;-91
2023/11/20 05:29:46;;;;;;;6.50;3.38;;;10.50;99.90;;;;;;4901628;29;20652;-90
2023/11/20 05:32:12;;;;;;;10.25;3.65;;;10.60;99.90;;;;;;4885944;29;20199;-90
2023/11/20 05:34:38;;;;;;;5.25;3.47;;;10.60;99.90;;;;;;4901513;29;20191;-91
2023/11/20 05:37:04;;;;;;;4.28;2.92;;;10.60;99.90;;;;;;4904428;29;20238;-92
2023/11/20 05:39:30;;;;;;;8.70;3.38;;;10.60;99.90;;;;;;4921303;29;20179;-92
2023/11/20 05:41:56;;;;;;;7.28;3.28;;;10.60;99.90;;;;;;4921175;29;20186;-89
2023/11/20 05:44:22;;;;;;;7.60;3.30;;;10.60;99.90;;;;;;4904282;29;20221;-89
2023/11/20 05:46:48;;;;;;;4.00;3.25;;;10.60;99.90;;;;;;4913132;29;20709;-90
2023/11/20 05:49:14;;;;;;;7.80;3.88;;;10.60;99.90;;;;;;4904196;29;20207;-91
2023/11/20 05:51:40;;;;;;;8.10;3.55;;;10.50;99.90;;;;;;4910000;29;20219;-89
2023/11/20 05:54:08;;;;;;;8.80;3.60;;;10.50;99.90;;;;;;4900305;29;20246;-89
2023/11/20 05:56:36;;;;;;;5.65;3.92;;;10.60;99.90;;;;;;4888904;29;20198;-88
2023/11/20 05:59:01;;;;;;;4.88;3.53;;;10.60;99.90;;;;;;4903736;29;20194;-92
2023/11/20 06:01:36;;;;;;;6.28;3.33;;;10.50;99.90;;;;;;4900428;29;20194;-90
2023/11/20 06:04:02;;;;;;;5.30;3.40;;;10.50;99.90;;;;;;4895007;29;20281;-91
2023/11/20 06:06:28;;;;;;;7.38;3.47;;;10.50;99.90;;;;;;4920857;29;20270;-86
2023/11/20 06:08:54;;;;;;;6.80;3.53;;;10.50;99.90;;;;;;4903902;29;20214;-88
2023/11/20 06:11:21;;;;;;;6.07;3.17;;;10.50;99.90;;;;;;4903559;29;20214;-88
2023/11/20 06:13:47;;;;;;;4.35;3.03;;;10.50;99.90;;;;;;4903869;29;20187;-93
2023/11/20 06:16:16;;;;;;;10.30;3.50;;;10.50;99.90;;;;;;4903462;29;20195;-87
2023/11/20 06:18:42;;;;;;;4.38;3.30;;;10.50;99.90;;;;;;4903268;29;20186;-88
2023/11/20 06:21:08;;;;;;;5.10;3.13;;;10.50;99.90;;;;;;4903503;29;20214;-89
2023/11/20 06:23:35;;;;;;;8.57;3.60;;;10.50;99.90;;;;;;4902683;29;20297;-88
2023/11/20 06:26:01;;;;;;;4.85;2.90;;;10.50;99.90;;;;;;4903503;29;20205;-88
2023/11/20 06:28:27;;;;;;;4.57;3.40;;;10.50;99.90;;;;;;4903026;29;20804;-89
2023/11/20 06:30:53;;;;;;;10.93;3.35;;;10.50;99.90;;;;;;4903106;29;20218;-90
2023/11/20 06:33:20;;;;;;;4.80;3.40;;;10.50;99.90;;;;;;4903105;29;20190;-87
2023/11/20 06:35:46;;;;;;;5.18;3.50;;;10.50;99.90;;;;;;4887471;29;20202;-88
2023/11/20 06:38:12;;;;;;;4.18;2.92;;;10.50;99.90;;;;;;4886741;29;20242;-89
2023/11/20 06:40:40;;;;;;;10.05;3.47;;;10.50;99.90;;;;;;4902660;29;20286;-87
2023/11/20 06:43:06;;;;;;;7.88;3.75;;;10.50;99.90;;;;;;4905546;29;20231;-88
2023/11/20 06:45:32;;;;;;;4.68;3.38;;;10.50;99.90;;;;;;4887302;29;20585;-90
2023/11/20 06:47:58;;;;;;;6.85;3.80;;;10.50;99.90;;;;;;4887469;29;20633;-92
2023/11/20 06:50:25;;;;;;;4.03;3.47;;;10.50;99.90;;;;;;4895180;29;20246;-90
2023/11/20 06:52:57;;;;;;;7.50;3.95;;;10.50;99.90;;;;;;4903217;29;20182;-87
2023/11/20 06:55:23;;;;;;;6.00;3.65;;;10.50;99.90;;;;;;4917557;29;20618;-90
2023/11/20 06:57:48;;;;;;;7.43;3.45;;;10.50;99.90;;;;;;4890646;29;20238;-91
2023/11/20 07:00:15;;;;;;;6.50;3.38;;;10.50;99.90;;;;;;4902846;29;20195;-86
2023/11/20 07:02:42;;;;;;;4.60;2.85;;;10.50;99.90;;;;;;4919631;29;20210;-89
2023/11/20 07:05:11;;;;;;;5.47;2.88;;;10.50;99.90;;;;;;4902913;29;20225;-87
2023/11/20 07:07:42;;;;;;;3.65;3.00;;;10.50;99.90;;;;;;4911628;29;20186;-87
2023/11/20 07:10:11;;;;;;;5.82;3.30;;;10.50;99.90;;;;;;4902897;29;20186;-85
2023/11/20 07:12:40;;;;;;;4.95;3.00;;;10.50;99.90;;;;;;4902162;29;20242;-91
2023/11/20 07:15:07;;;;;;;3.75;2.90;;;10.50;99.90;;;;;;4902895;29;20186;-85
2023/11/20 07:17:33;;;;;;;4.38;2.70;;;10.50;99.90;;;;;;4891408;29;20223;-86
2023/11/20 07:19:59;;;;;;;4.07;2.85;;;10.40;99.90;;;;;;4914390;29;20213;-88
2023/11/20 07:22:27;;;;;;;3.53;2.50;;;10.50;99.90;;;;;;4886902;29;20634;-86
2023/11/20 07:24:52;;;;;;;6.30;3.25;;;10.50;99.90;;;;;;4882236;29;20197;-88
2023/11/20 07:27:18;;;;;;;4.28;2.80;;;10.50;99.90;;;;;;4891693;29;20190;-88
2023/11/20 07:29:44;;;;;;;4.95;2.88;;;10.50;99.90;;;;;;4902458;29;20194;-93
2023/11/20 07:32:10;;;;;;;4.30;2.50;;;10.50;99.90;;;;;;4887818;29;20219;-88
2023/11/20 07:34:36;;;;;;;7.03;2.50;;;10.50;99.90;;;;;;4901613;29;20190;-92
2023/11/20 07:37:02;;;;;;;6.82;2.33;;;10.50;99.90;;;;;;4902257;29;20237;-90
2023/11/20 07:39:27;;;;;;;4.45;2.47;;;10.50;99.90;;;;;;4887028;29;20183;-91
2023/11/20 07:41:53;;;;;;;6.65;2.63;;;10.50;99.90;;;;;;4919175;29;20652;-93
2023/11/20 07:44:20;;;;;;;5.32;2.10;;;10.50;99.90;;;;;;4918061;29;20195;-92
2023/11/20 07:46:47;;;;;;;5.53;2.15;;;10.50;99.90;;;;;;4895449;29;20626;-91
2023/11/20 07:49:13;;;;;;;6.43;2.40;;;10.50;99.90;;;;;;4901921;29;20253;-88
2023/11/20 07:51:40;;;;;;;2.92;1.85;;;10.50;99.90;;;;;;4902119;29;20241;-92
2023/11/20 07:54:08;;;;;;;5.22;2.10;;;10.50;99.90;;;;;;4918604;29;20179;-90
2023/11/20 07:56:34;;;;;;;4.22;1.83;;;10.50;99.90;;;;;;4898672;29;20256;-90
2023/11/20 07:59:00;;;;;;;4.18;1.80;;;10.50;99.90;;;;;;4901467;29;20195;-85
2023/11/20 08:01:26;;;;;;;3.85;1.98;;;10.50;99.90;;;;;;4887532;29;20573;-88
2023/11/20 08:03:52;;;;;;;2.20;1.73;;;10.50;99.90;;;;;;4882975;29;20526;-88
2023/11/20 08:06:18;;;;;;;6.78;2.20;;;10.50;99.90;;;;;;4898918;29;20205;-91
2023/11/20 08:08:44;;;;;;;4.25;1.85;;;10.50;99.90;;;;;;4901987;29;20245;-91
2023/11/20 08:11:11;;;;;;;6.05;2.00;;;10.50;99.90;;;;;;4901552;29;20604;-88
2023/11/20 08:13:37;;;;;;;5.55;2.22;;;10.50;99.90;;;;;;4918455;29;20230;-87
2023/11/20 08:16:04;;;;;;;5.47;2.15;;;10.50;99.90;;;;;;4901287;29;20198;-87
2023/11/20 08:18:29;;;;;;;5.85;2.25;;;10.50;99.90;;;;;;4899203;29;20587;-88
2023/11/20 08:20:55;;;;;;;5.95;2.47;;;10.50;99.90;;;;;;4871687;29;20187;-89
2023/11/20 08:23:22;;;;;;;6.72;2.13;;;10.50;99.90;;;;;;4887320;29;20227;-86
2023/11/20 08:25:48;;;;;;;7.03;2.40;;;10.50;99.90;;;;;;4890980;29;20615;-86
2023/11/20 08:28:13;;;;;;;4.40;2.20;;;10.50;99.90;;;;;;4890602;29;20191;-85
2023/11/20 08:30:39;;;;;;;7.32;2.63;;;10.40;99.90;;;;;;4892974;29;20258;-86
2023/11/20 08:33:07;;;;;;;5.25;2.30;;;10.50;99.90;;;;;;4893748;29;20187;-87
2023/11/20 08:35:33;;;;;;;6.88;2.42;;;10.50;99.90;;;;;;4906387;29;20262;-86
2023/11/20 08:37:59;;;;;;;7.38;2.70;;;10.50;99.90;;;;;;4887753;29;20244;-85
2023/11/20 08:40:25;;;;;;;7.18;2.80;;;10.60;99.90;;;;;;4889604;29;20187;-88
2023/11/20 08:42:50;;;;;;;6.53;2.63;;;10.50;99.90;;;;;;4885373;29;20251;-86
2023/11/20 08:45:16;;;;;;;12.85;3.20;;;10.50;99.90;;;;;;4891175;29;20619;-90
2023/11/20 08:47:42;;;;;;;4.75;2.78;;;10.50;99.90;;;;;;4883202;29;20202;-86
2023/11/20 08:50:09;;;;;;;6.20;3.03;;;10.50;99.90;;;;;;4891842;29;20600;-86
2023/11/20 08:52:35;;;;;;;5.18;2.85;;;10.50;99.90;;;;;;4881520;29;20270;-87
2023/11/20 08:55:01;;;;;;;9.95;2.88;;;10.50;99.90;;;;;;4885299;29;20707;-85
2023/11/20 08:57:27;;;;;;;8.15;2.88;;;10.60;99.90;;;;;;4889087;29;20526;-87
2023/11/20 08:59:53;;;;;;;5.68;2.95;;;10.60;99.90;;;;;;4880034;29;20183;-89
2023/11/20 09:02:18;;;;;;;9.98;3.10;;;10.60;99.90;;;;;;4871390;29;20188;-91
2023/11/20 09:04:44;;;;;;;7.82;2.60;;;10.60;99.90;;;;;;4883575;29;20243;-89
2023/11/20 09:07:10;;;;;;;7.55;2.60;;;10.60;99.90;;;;;;4892210;29;20199;-89
2023/11/20 09:09:35;;;;;;;10.55;2.80;;;10.60;99.90;;;;;;4892904;29;20183;-85
2023/11/20 09:12:04;;;;;;;9.77;2.50;;;10.60;99.90;;;;;;4881009;29;20211;-87
2023/11/20 09:14:30;;;;;;;5.57;2.15;;;10.70;99.90;;;;;;4883482;29;20694;-89
2023/11/20 09:16:56;;;;;;;3.90;2.30;;;10.60;99.90;;;;;;4882204;29;20274;-88
2023/11/20 09:19:22;;;;;;;7.97;2.20;;;10.60;99.90;;;;;;4891255;29;20239;-88
2023/11/20 09:21:48;;;;;;;4.55;1.92;;;10.60;99.90;;;;;;4889982;29;20188;-88
2023/11/20 09:24:14;;;;;;;4.60;2.10;;;10.70;99.90;;;;;;4890001;29;20187;-90
2023/11/20 09:26:43;;;;;;;6.53;2.17;;;10.70;99.90;;;;;;4898171;29;20202;-88
2023/11/20 09:29:10;;;;;;;3.10;1.90;;;10.70;99.90;;;;;;4896305;29;20254;-87
2023/11/20 09:31:36;;;;;;;4.10;2.00;;;10.70;99.90;;;;;;4889622;29;20222;-91
2023/11/20 09:34:02;;;;;;;4.25;2.20;;;10.70;99.90;;;;;;4895968;29;20194;-87
2023/11/20 09:36:29;;;;;;;3.25;1.75;;;10.70;99.90;;;;;;4885340;29;20616;-88
2023/11/20 09:38:54;;;;;;;3.53;1.60;;;10.70;99.90;;;;;;4893137;29;20258;-90
2023/11/20 09:41:20;;;;;;;1.88;1.30;;;10.70;99.90;;;;;;4879360;29;20195;-87
2023/11/20 09:43:49;;;;;;;2.38;1.20;;;10.70;99.90;;;;;;4886542;29;20706;-88
2023/11/20 09:46:15;;;;;;;2.90;1.20;;;10.70;99.90;;;;;;4882554;29;20623;-87
2023/11/20 09:48:43;;;;;;;2.78;1.23;;;10.60;99.90;;;;;;4873170;29;20235;-87
2023/11/20 09:51:10;;;;;;;2.55;1.25;;;10.60;99.90;;;;;;4894392;29;20223;-88
2023/11/20 09:53:39;;;;;;;6.72;1.70;;;10.60;99.90;;;;;;4889056;29;20304;-88
2023/11/20 09:56:09;;;;;;;2.67;1.20;;;10.60;99.90;;;;;;4883211;29;20202;-87
2023/11/20 09:58:36;;;;;;;3.50;1.30;;;10.60;99.90;;;;;;4895116;29;20183;-86
2023/11/20 10:01:10;;;;;;;6.30;1.13;;;10.70;99.90;;;;;;4887911;29;20191;-88
2023/11/20 10:03:39;;;;;;;3.60;1.45;;;10.70;99.90;;;;;;4888049;29;20186;-90
2023/11/20 10:06:07;;;;;;;4.68;1.10;;;10.80;99.90;;;;;;4884389;29;20195;-86
2023/11/20 10:08:38;;;;;;;4.43;0.93;;;10.90;99.90;;;;;;4894362;29;20196;-91
2023/11/20 10:11:04;;;;;;;3.22;1.00;;;10.90;99.90;;;;;;4895640;29;20638;-88
2023/11/20 10:13:30;;;;;;;3.38;0.90;;;10.90;99.90;;;;;;4890326;29;20202;-88
2023/11/20 10:15:57;;;;;;;2.20;0.90;;;11.00;99.90;;;;;;4889857;29;20231;-87
2023/11/20 10:18:24;;;;;;;4.97;1.05;;;11.00;99.90;;;;;;4889723;29;20203;-87
2023/11/20 10:20:51;;;;;;;4.00;0.82;;;10.90;99.90;;;;;;4901558;29;20545;-86
2023/11/20 10:23:17;;;;;;;2.45;0.90;;;10.90;99.90;;;;;;4883561;29;20625;-87
2023/11/20 10:25:45;;;;;;;1.80;0.85;;;10.90;99.90;;;;;;4887057;29;20522;-87
2023/11/20 10:28:13;;;;;;;3.60;0.80;;;10.90;99.90;;;;;;4883404;29;20209;-89
2023/11/20 10:30:44;;;;;;;3.40;1.05;;;10.80;99.90;;;;;;4872969;29;20390;-88
2023/11/20 10:33:20;;;;;;;5.47;1.70;;;10.80;99.90;;;;;;4884804;29;20282;-87
2023/11/20 10:35:48;;;;;;;4.32;1.17;;;10.70;99.90;;;;;;4879349;29;20643;-86
2023/11/20 10:38:14;;;;;;;3.22;1.35;;;10.70;99.90;;;;;;4879806;29;20431;-89
2023/11/20 10:40:41;;;;;;;7.25;1.20;;;10.70;99.90;;;;;;4875261;29;20571;-86
2023/11/20 10:43:07;;;;;;;3.67;1.27;;;10.60;99.90;;;;;;4884006;29;20219;-88
2023/11/20 10:45:33;;;;;;;5.63;1.45;;;10.70;99.90;;;;;;4899765;29;20188;-87
2023/11/20 10:48:00;;;;;;;8.32;2.17;;;10.60;99.90;;;;;;4899713;29;20318;-87
2023/11/20 10:50:31;;;;;;;4.25;1.60;;;10.60;99.90;;;;;;4898486;29;20231;-87
2023/11/20 10:53:06;;;;;;;11.18;2.17;;;10.60;99.90;;;;;;4900879;29;20191;-86
2023/11/20 10:55:41;;;;;;;7.93;2.03;;;10.60;99.90;;;;;;4900841;29;20265;-88
2023/11/20 10:58:09;;;;;;;11.65;2.40;;;10.60;99.90;;;;;;4884053;29;20194;-87
2023/11/20 11:00:36;;;;;;;9.93;2.90;;;10.60;99.90;;;;;;4890382;29;20222;-87
2023/11/20 11:03:06;;;;;;;13.75;2.58;;;10.60;99.90;;;;;;4874728;29;20236;-89
2023/11/20 11:05:38;;;;;;;9.10;2.35;;;10.50;99.90;;;;;;4875379;29;20180;-88
2023/11/20 11:08:08;;;;;;;7.05;2.17;;;10.50;99.90;;;;;;4870673;29;20192;-88
2023/11/20 11:10:40;;;;;;;8.93;2.40;;;10.50;99.90;;;;;;4882051;29;20216;-87
2023/11/20 11:13:10;;;;;;;9.63;2.92;;;10.50;99.90;;;;;;4875453;29;20272;-85
2023/11/20 11:15:40;;;;;;;15.18;3.00;;;10.50;99.90;;;;;;4875385;29;20216;-86
2023/11/20 11:18:14;;;;;;;10.07;2.55;;;10.50;99.90;;;;;;4876370;29;20187;-86
2023/11/20 11:20:47;;;;;;;13.73;2.72;;;10.50;99.90;;;;;;4883629;29;20249;-85
2023/11/20 11:23:16;;;;;;;9.10;2.30;;;10.50;99.90;;;;;;4884006;29;20200;-89
2023/11/20 11:26:18;;;;;;;9.85;2.60;;;10.40;99.90;;;;;;4891794;29;20250;-86
2023/11/20 11:28:50;;;;;;;10.82;2.70;;;10.40;99.90;;;;;;4814946;29;20198;-86
2023/11/20 11:31:18;;;;;;;14.25;3.17;;;10.40;99.90;;;;;;4892686;29;20215;-87
2023/11/20 11:34:11;;;;;;;10.50;3.45;;;10.40;99.90;;;;;;4898843;29;20226;-86
2023/11/20 11:36:58;;;;;;;10.55;2.85;;;10.40;99.90;;;;;;4887855;29;20631;-84
2023/11/20 11:39:31;;;;;;;10.50;2.58;;;10.40;99.90;;;;;;4884873;29;20206;-86
2023/11/20 11:42:16;;;;;;;18.13;3.25;;;10.50;99.90;;;;;;4889665;29;20191;-85
2023/11/20 11:45:03;;;;;;;22.55;3.53;;;10.50;99.90;;;;;;4883366;29;20191;-87
2023/11/20 11:47:29;;;;;;;21.88;3.63;;;10.50;99.90;;;;;;4891604;29;20714;-87
2023/11/20 11:49:56;;;;;;;11.75;2.92;;;10.50;99.90;;;;;;4899035;29;20187;-85
2023/11/20 11:52:34;;;;;;;18.73;3.58;;;10.50;99.90;;;;;;4882416;29;20255;-87
2023/11/20 11:55:19;;;;;;;11.00;3.03;;;10.50;99.90;;;;;;4898149;29;20263;-87
2023/11/20 11:57:52;;;;;;;12.43;3.20;;;10.50;99.90;;;;;;4884419;29;20533;-85
2023/11/20 12:00:22;;;;;;;12.60;3.03;;;10.50;99.90;;;;;;4885501;29;20195;-90
2023/11/20 12:02:51;;;;;;;14.05;3.33;;;10.50;99.90;;;;;;4898064;29;20619;-88
2023/11/20 12:05:17;;;;;;;11.77;3.10;;;10.50;99.90;;;;;;4893478;29;20615;-88
2023/11/20 12:07:43;;;;;;;13.13;3.30;;;10.50;99.90;;;;;;4897197;29;20282;-88
2023/11/20 12:10:12;;;;;;;15.27;3.97;;;10.50;99.90;;;;;;4885333;29;20204;-87
2023/11/20 12:12:48;;;;;;;13.45;3.13;;;10.50;99.90;;;;;;4896668;29;20286;-87
2023/11/20 12:15:39;;;;;;;11.65;2.90;;;10.50;99.90;;;;;;4898977;29;20185;-86
2023/11/20 12:18:21;;;;;;;16.15;3.67;;;10.40;99.90;;;;;;4884437;29;20182;-86
2023/11/20 12:20:55;;;;;;;8.07;2.72;;;10.40;99.90;;;;;;4884944;29;20623;-87
2023/11/20 12:23:34;;;;;;;11.70;3.10;;;10.40;99.90;;;;;;4881919;29;20194;-85
2023/11/20 12:26:01;;;;;;;10.55;3.08;;;10.40;99.90;;;;;;4886802;29;20187;-89
2023/11/20 12:28:31;;;;;;;15.07;3.67;;;10.30;99.90;;;;;;4879385;29;20259;-88
2023/11/20 12:31:04;;;;;;;11.10;3.10;;;10.30;99.90;;;;;;4886299;29;20250;-86
2023/11/20 12:33:31;;;;;;;11.15;3.95;;;10.30;99.90;;;;;;4898489;29;20194;-86
2023/11/20 12:35:58;;;;;;;11.38;3.58;;;10.30;99.90;;;;;;4882583;29;20294;-86
2023/11/20 12:38:24;;;;;;;13.07;3.22;;;10.30;99.90;;;;;;4894670;29;20235;-85
2023/11/20 12:40:52;;;;;;;15.10;4.00;;;10.30;99.90;;;;;;4875094;29;20196;-87
2023/11/20 12:43:19;;;;;;;12.30;3.83;;;10.30;99.90;;;;;;4891045;29;20214;-89
2023/11/20 12:45:46;;;;;;;12.68;4.07;;;10.30;99.90;;;;;;4887785;29;20198;-86